Radford, Illinois
Current Conditions -  °F | °C
As of 4:13 AM on Thursday 18 Dec 2014 (Local Time) from KDEC Reporting Station
Broken Clouds Broken Clouds  
Wind Chill: 24°   Ceiling: 2200
Heat Index: 24°   Visibility: 8mi
Dew Point: 19°   Wind: 0mph
Humidity: 81%   Direction: NA
Pressure: 30.28"   Gusts: NA
Location:  39.6032°N, 88.9855°W
Report Text: KDEC 181013Z AUTO 00000KT 8SM BKN022 M04/M07 A3028 RMK AO2 T10441072 TSNO
Loading
Personal Weather Stations






























Interactive Weather Map New forecast layout! Learn more

10-Day Weather Forecast

Advertisements
Track Severe Weather on mobile